sensor_id;sensor_type;location;lat;lon;timestamp;P1;durP1;ratioP1;P2;durP2;ratioP2
37237;SDS011;23129;49.662;8.448;2023-05-07T00:01:35;2.38;;;1.45;;
37237;SDS011;23129;49.662;8.448;2023-05-07T00:04:04;7.40;;;1.83;;
37237;SDS011;23129;49.662;8.448;2023-05-07T00:06:35;8.32;;;2.13;;
37237;SDS011;23129;49.662;8.448;2023-05-07T00:09:03;3.13;;;1.92;;
37237;SDS011;23129;49.662;8.448;2023-05-07T00:11:33;1.83;;;1.50;;
37237;SDS011;23129;49.662;8.448;2023-05-07T00:14:02;5.05;;;1.83;;
37237;SDS011;23129;49.662;8.448;2023-05-07T00:16:31;2.67;;;1.42;;
37237;SDS011;23129;49.662;8.448;2023-05-07T00:19:00;1.83;;;1.50;;
37237;SDS011;23129;49.662;8.448;2023-05-07T00:21:30;3.17;;;2.08;;
37237;SDS011;23129;49.662;8.448;2023-05-07T00:24:00;2.35;;;1.35;;
37237;SDS011;23129;49.662;8.448;2023-05-07T00:26:29;4.88;;;1.85;;
37237;SDS011;23129;49.662;8.448;2023-05-07T00:28:57;1.88;;;1.73;;
37237;SDS011;23129;49.662;8.448;2023-05-07T00:31:26;2.00;;;1.45;;
37237;SDS011;23129;49.662;8.448;2023-05-07T00:33:55;3.88;;;1.48;;
37237;SDS011;23129;49.662;8.448;2023-05-07T00:36:24;2.33;;;1.50;;
37237;SDS011;23129;49.662;8.448;2023-05-07T00:38:53;1.60;;;1.40;;
37237;SDS011;23129;49.662;8.448;2023-05-07T00:41:24;2.15;;;1.38;;
37237;SDS011;23129;49.662;8.448;2023-05-07T00:43:52;2.03;;;1.23;;
37237;SDS011;23129;49.662;8.448;2023-05-07T00:46:21;4.40;;;1.48;;
37237;SDS011;23129;49.662;8.448;2023-05-07T00:48:50;2.17;;;1.80;;
37237;SDS011;23129;49.662;8.448;2023-05-07T00:51:19;1.95;;;1.58;;
37237;SDS011;23129;49.662;8.448;2023-05-07T00:53:48;5.55;;;1.80;;
37237;SDS011;23129;49.662;8.448;2023-05-07T00:56:17;2.25;;;1.65;;
37237;SDS011;23129;49.662;8.448;2023-05-07T00:58:48;2.25;;;1.33;;
37237;SDS011;23129;49.662;8.448;2023-05-07T01:01:17;2.13;;;1.80;;
37237;SDS011;23129;49.662;8.448;2023-05-07T01:03:45;3.97;;;2.13;;
37237;SDS011;23129;49.662;8.448;2023-05-07T01:06:15;3.28;;;1.50;;
37237;SDS011;23129;49.662;8.448;2023-05-07T01:08:45;3.17;;;1.50;;
37237;SDS011;23129;49.662;8.448;2023-05-07T01:11:14;2.38;;;1.85;;
37237;SDS011;23129;49.662;8.448;2023-05-07T01:13:45;2.35;;;1.70;;
37237;SDS011;23129;49.662;8.448;2023-05-07T01:16:17;2.13;;;1.90;;
37237;SDS011;23129;49.662;8.448;2023-05-07T01:18:46;2.63;;;1.50;;
37237;SDS011;23129;49.662;8.448;2023-05-07T01:21:15;1.70;;;1.40;;
37237;SDS011;23129;49.662;8.448;2023-05-07T01:23:47;1.95;;;1.73;;
37237;SDS011;23129;49.662;8.448;2023-05-07T01:26:16;2.25;;;1.50;;
37237;SDS011;23129;49.662;8.448;2023-05-07T01:28:46;3.90;;;1.83;;
37237;SDS011;23129;49.662;8.448;2023-05-07T01:31:15;2.28;;;1.90;;
37237;SDS011;23129;49.662;8.448;2023-05-07T01:33:45;4.07;;;1.83;;
37237;SDS011;23129;49.662;8.448;2023-05-07T01:36:16;5.68;;;1.85;;
37237;SDS011;23129;49.662;8.448;2023-05-07T01:38:48;2.92;;;1.45;;
37237;SDS011;23129;49.662;8.448;2023-05-07T01:41:18;1.95;;;1.65;;
37237;SDS011;23129;49.662;8.448;2023-05-07T01:43:48;8.63;;;2.33;;
37237;SDS011;23129;49.662;8.448;2023-05-07T01:46:19;2.25;;;2.08;;
37237;SDS011;23129;49.662;8.448;2023-05-07T01:48:48;5.30;;;1.90;;
37237;SDS011;23129;49.662;8.448;2023-05-07T01:51:20;2.80;;;2.08;;
37237;SDS011;23129;49.662;8.448;2023-05-07T01:53:51;5.70;;;2.28;;
37237;SDS011;23129;49.662;8.448;2023-05-07T01:56:21;2.72;;;2.15;;
37237;SDS011;23129;49.662;8.448;2023-05-07T01:58:51;2.42;;;2.22;;
37237;SDS011;23129;49.662;8.448;2023-05-07T02:01:20;2.42;;;2.05;;
37237;SDS011;23129;49.662;8.448;2023-05-07T02:03:49;4.82;;;2.40;;
37237;SDS011;23129;49.662;8.448;2023-05-07T02:06:22;3.05;;;1.40;;
37237;SDS011;23129;49.662;8.448;2023-05-07T02:08:57;2.00;;;1.80;;
37237;SDS011;23129;49.662;8.448;2023-05-07T02:11:26;2.17;;;1.80;;
37237;SDS011;23129;49.662;8.448;2023-05-07T02:13:55;4.22;;;2.30;;
37237;SDS011;23129;49.662;8.448;2023-05-07T02:16:23;7.22;;;2.20;;
37237;SDS011;23129;49.662;8.448;2023-05-07T02:18:52;5.10;;;2.00;;
37237;SDS011;23129;49.662;8.448;2023-05-07T02:21:21;3.30;;;1.83;;
37237;SDS011;23129;49.662;8.448;2023-05-07T02:23:50;2.15;;;1.95;;
37237;SDS011;23129;49.662;8.448;2023-05-07T02:26:20;4.60;;;1.98;;
37237;SDS011;23129;49.662;8.448;2023-05-07T02:28:48;3.15;;;1.95;;
37237;SDS011;23129;49.662;8.448;2023-05-07T02:31:18;3.95;;;1.67;;
37237;SDS011;23129;49.662;8.448;2023-05-07T02:33:47;9.77;;;1.85;;
37237;SDS011;23129;49.662;8.448;2023-05-07T02:36:16;3.03;;;1.88;;
37237;SDS011;23129;49.662;8.448;2023-05-07T02:38:51;2.88;;;1.80;;
37237;SDS011;23129;49.662;8.448;2023-05-07T02:41:21;7.80;;;2.05;;
37237;SDS011;23129;49.662;8.448;2023-05-07T02:43:49;2.28;;;1.58;;
37237;SDS011;23129;49.662;8.448;2023-05-07T02:46:18;4.95;;;2.05;;
37237;SDS011;23129;49.662;8.448;2023-05-07T02:48:55;3.45;;;1.50;;
37237;SDS011;23129;49.662;8.448;2023-05-07T02:51:25;3.00;;;1.98;;
37237;SDS011;23129;49.662;8.448;2023-05-07T02:53:56;5.47;;;2.05;;
37237;SDS011;23129;49.662;8.448;2023-05-07T02:56:27;1.98;;;1.60;;
37237;SDS011;23129;49.662;8.448;2023-05-07T02:58:56;1.90;;;1.60;;
37237;SDS011;23129;49.662;8.448;2023-05-07T03:01:28;2.70;;;1.77;;
37237;SDS011;23129;49.662;8.448;2023-05-07T03:04:01;5.10;;;1.95;;
37237;SDS011;23129;49.662;8.448;2023-05-07T03:06:30;7.35;;;1.85;;
37237;SDS011;23129;49.662;8.448;2023-05-07T03:08:58;1.90;;;1.80;;
37237;SDS011;23129;49.662;8.448;2023-05-07T03:11:29;2.17;;;1.70;;
37237;SDS011;23129;49.662;8.448;2023-05-07T03:13:57;5.05;;;2.00;;
37237;SDS011;23129;49.662;8.448;2023-05-07T03:16:27;2.72;;;1.92;;
37237;SDS011;23129;49.662;8.448;2023-05-07T03:18:56;2.67;;;2.47;;
37237;SDS011;23129;49.662;8.448;2023-05-07T03:21:25;2.85;;;1.98;;
37237;SDS011;23129;49.662;8.448;2023-05-07T03:23:53;2.53;;;2.05;;
37237;SDS011;23129;49.662;8.448;2023-05-07T03:26:22;2.55;;;2.08;;
37237;SDS011;23129;49.662;8.448;2023-05-07T03:28:53;5.95;;;2.38;;
37237;SDS011;23129;49.662;8.448;2023-05-07T03:31:22;5.80;;;2.17;;
37237;SDS011;23129;49.662;8.448;2023-05-07T03:33:52;3.38;;;2.00;;
37237;SDS011;23129;49.662;8.448;2023-05-07T03:36:23;2.42;;;2.22;;
37237;SDS011;23129;49.662;8.448;2023-05-07T03:38:54;5.75;;;2.50;;
37237;SDS011;23129;49.662;8.448;2023-05-07T03:41:25;3.95;;;2.08;;
37237;SDS011;23129;49.662;8.448;2023-05-07T03:43:57;3.17;;;2.20;;
37237;SDS011;23129;49.662;8.448;2023-05-07T03:46:26;3.97;;;2.08;;
37237;SDS011;23129;49.662;8.448;2023-05-07T03:48:55;4.50;;;2.65;;
37237;SDS011;23129;49.662;8.448;2023-05-07T03:51:23;2.50;;;1.85;;
37237;SDS011;23129;49.662;8.448;2023-05-07T03:53:53;2.88;;;1.95;;
37237;SDS011;23129;49.662;8.448;2023-05-07T03:56:24;3.15;;;2.47;;
37237;SDS011;23129;49.662;8.448;2023-05-07T03:58:55;2.60;;;2.05;;
37237;SDS011;23129;49.662;8.448;2023-05-07T04:01:25;2.38;;;2.17;;
37237;SDS011;23129;49.662;8.448;2023-05-07T04:03:55;9.88;;;2.45;;
37237;SDS011;23129;49.662;8.448;2023-05-07T04:06:24;7.68;;;2.45;;
37237;SDS011;23129;49.662;8.448;2023-05-07T04:08:54;4.50;;;2.15;;
37237;SDS011;23129;49.662;8.448;2023-05-07T04:11:22;8.73;;;2.90;;
37237;SDS011;23129;49.662;8.448;2023-05-07T04:13:51;2.30;;;2.10;;
37237;SDS011;23129;49.662;8.448;2023-05-07T04:16:23;2.63;;;2.42;;
37237;SDS011;23129;49.662;8.448;2023-05-07T04:18:52;4.82;;;2.47;;
37237;SDS011;23129;49.662;8.448;2023-05-07T04:21:21;5.57;;;2.72;;
37237;SDS011;23129;49.662;8.448;2023-05-07T04:23:51;3.95;;;2.80;;
37237;SDS011;23129;49.662;8.448;2023-05-07T04:26:19;6.25;;;2.72;;
37237;SDS011;23129;49.662;8.448;2023-05-07T04:28:50;6.32;;;2.40;;
37237;SDS011;23129;49.662;8.448;2023-05-07T04:31:19;2.78;;;2.58;;
37237;SDS011;23129;49.662;8.448;2023-05-07T04:33:52;2.78;;;2.10;;
37237;SDS011;23129;49.662;8.448;2023-05-07T04:36:21;4.15;;;2.83;;
37237;SDS011;23129;49.662;8.448;2023-05-07T04:38:56;5.20;;;3.05;;
37237;SDS011;23129;49.662;8.448;2023-05-07T04:41:25;3.03;;;2.20;;
37237;SDS011;23129;49.662;8.448;2023-05-07T04:43:55;4.45;;;3.05;;
37237;SDS011;23129;49.662;8.448;2023-05-07T04:46:26;2.67;;;2.28;;
37237;SDS011;23129;49.662;8.448;2023-05-07T04:48:58;6.60;;;2.33;;
37237;SDS011;23129;49.662;8.448;2023-05-07T04:51:27;4.97;;;3.05;;
37237;SDS011;23129;49.662;8.448;2023-05-07T04:53:56;3.80;;;2.95;;
37237;SDS011;23129;49.662;8.448;2023-05-07T04:56:27;3.33;;;2.83;;
37237;SDS011;23129;49.662;8.448;2023-05-07T04:58:58;2.97;;;2.45;;
37237;SDS011;23129;49.662;8.448;2023-05-07T05:01:27;5.40;;;2.78;;
37237;SDS011;23129;49.662;8.448;2023-05-07T05:03:57;2.97;;;2.53;;
37237;SDS011;23129;49.662;8.448;2023-05-07T05:06:28;4.40;;;2.72;;
37237;SDS011;23129;49.662;8.448;2023-05-07T05:08:57;8.13;;;2.70;;
37237;SDS011;23129;49.662;8.448;2023-05-07T05:11:28;3.08;;;2.22;;
37237;SDS011;23129;49.662;8.448;2023-05-07T05:13:58;5.30;;;2.50;;
37237;SDS011;23129;49.662;8.448;2023-05-07T05:16:28;3.28;;;2.45;;
37237;SDS011;23129;49.662;8.448;2023-05-07T05:18:58;6.97;;;2.25;;
37237;SDS011;23129;49.662;8.448;2023-05-07T05:21:31;2.55;;;2.17;;
37237;SDS011;23129;49.662;8.448;2023-05-07T05:24:06;3.33;;;2.50;;
37237;SDS011;23129;49.662;8.448;2023-05-07T05:26:35;4.13;;;2.40;;
37237;SDS011;23129;49.662;8.448;2023-05-07T05:29:04;7.15;;;3.08;;
37237;SDS011;23129;49.662;8.448;2023-05-07T05:31:35;2.67;;;2.47;;
37237;SDS011;23129;49.662;8.448;2023-05-07T05:34:05;3.00;;;2.03;;
37237;SDS011;23129;49.662;8.448;2023-05-07T05:36:35;2.35;;;2.10;;
37237;SDS011;23129;49.662;8.448;2023-05-07T05:39:04;7.30;;;2.72;;
37237;SDS011;23129;49.662;8.448;2023-05-07T05:41:33;9.75;;;2.28;;
37237;SDS011;23129;49.662;8.448;2023-05-07T05:44:02;3.45;;;2.28;;
37237;SDS011;23129;49.662;8.448;2023-05-07T05:46:31;2.58;;;2.17;;
37237;SDS011;23129;49.662;8.448;2023-05-07T05:49:02;5.45;;;2.10;;
37237;SDS011;23129;49.662;8.448;2023-05-07T05:51:33;2.53;;;2.33;;
37237;SDS011;23129;49.662;8.448;2023-05-07T05:54:01;2.22;;;2.03;;
37237;SDS011;23129;49.662;8.448;2023-05-07T05:56:31;4.28;;;2.22;;
37237;SDS011;23129;49.662;8.448;2023-05-07T05:59:01;2.10;;;1.92;;
37237;SDS011;23129;49.662;8.448;2023-05-07T06:01:30;2.63;;;1.90;;
37237;SDS011;23129;49.662;8.448;2023-05-07T06:04:02;6.82;;;2.53;;
37237;SDS011;23129;49.662;8.448;2023-05-07T06:06:32;6.07;;;2.25;;
37237;SDS011;23129;49.662;8.448;2023-05-07T06:09:02;6.30;;;2.20;;
37237;SDS011;23129;49.662;8.448;2023-05-07T06:14:06;3.20;;;2.15;;
37237;SDS011;23129;49.662;8.448;2023-05-07T06:16:35;3.03;;;2.70;;
37237;SDS011;23129;49.662;8.448;2023-05-07T06:19:06;6.40;;;2.30;;
37237;SDS011;23129;49.662;8.448;2023-05-07T06:21:38;4.00;;;2.20;;
37237;SDS011;23129;49.662;8.448;2023-05-07T06:24:07;3.70;;;2.35;;
37237;SDS011;23129;49.662;8.448;2023-05-07T06:26:38;2.25;;;1.88;;
37237;SDS011;23129;49.662;8.448;2023-05-07T06:32:28;2.33;;;2.13;;
37237;SDS011;23129;49.662;8.448;2023-05-07T06:34:57;2.33;;;2.13;;
37237;SDS011;23129;49.662;8.448;2023-05-07T06:37:28;3.75;;;2.50;;
37237;SDS011;23129;49.662;8.448;2023-05-07T06:40:01;3.63;;;2.47;;
37237;SDS011;23129;49.662;8.448;2023-05-07T06:42:32;3.80;;;1.88;;
37237;SDS011;23129;49.662;8.448;2023-05-07T06:45:18;2.00;;;1.85;;
37237;SDS011;23129;49.662;8.448;2023-05-07T06:47:47;6.03;;;2.08;;
37237;SDS011;23129;49.662;8.448;2023-05-07T06:50:16;4.30;;;1.98;;
37237;SDS011;23129;49.662;8.448;2023-05-07T06:52:47;5.25;;;2.28;;
37237;SDS011;23129;49.662;8.448;2023-05-07T06:55:15;4.07;;;2.28;;
37237;SDS011;23129;49.662;8.448;2023-05-07T06:57:45;5.63;;;1.95;;
37237;SDS011;23129;49.662;8.448;2023-05-07T07:00:15;2.58;;;1.88;;
37237;SDS011;23129;49.662;8.448;2023-05-07T07:02:49;2.03;;;1.90;;
37237;SDS011;23129;49.662;8.448;2023-05-07T07:05:20;4.63;;;2.55;;
37237;SDS011;23129;49.662;8.448;2023-05-07T07:07:51;3.00;;;2.15;;
37237;SDS011;23129;49.662;8.448;2023-05-07T07:10:20;2.75;;;2.28;;
37237;SDS011;23129;49.662;8.448;2023-05-07T07:12:51;2.65;;;2.08;;
37237;SDS011;23129;49.662;8.448;2023-05-07T07:15:21;6.88;;;2.20;;
37237;SDS011;23129;49.662;8.448;2023-05-07T07:17:52;3.80;;;2.25;;
37237;SDS011;23129;49.662;8.448;2023-05-07T07:20:22;2.20;;;2.00;;
37237;SDS011;23129;49.662;8.448;2023-05-07T07:22:52;3.47;;;2.30;;
37237;SDS011;23129;49.662;8.448;2023-05-07T07:25:21;4.45;;;2.38;;
37237;SDS011;23129;49.662;8.448;2023-05-07T07:27:50;4.57;;;2.03;;
37237;SDS011;23129;49.662;8.448;2023-05-07T07:30:20;2.83;;;2.20;;
37237;SDS011;23129;49.662;8.448;2023-05-07T07:32:49;2.40;;;1.98;;
37237;SDS011;23129;49.662;8.448;2023-05-07T07:35:19;5.32;;;2.63;;
37237;SDS011;23129;49.662;8.448;2023-05-07T07:37:48;4.72;;;2.92;;
37237;SDS011;23129;49.662;8.448;2023-05-07T07:40:19;2.28;;;1.90;;
37237;SDS011;23129;49.662;8.448;2023-05-07T07:42:47;5.18;;;1.63;;
37237;SDS011;23129;49.662;8.448;2023-05-07T07:45:16;4.13;;;2.03;;
37237;SDS011;23129;49.662;8.448;2023-05-07T07:47:47;7.38;;;2.22;;
37237;SDS011;23129;49.662;8.448;2023-05-07T07:50:16;3.65;;;2.03;;
37237;SDS011;23129;49.662;8.448;2023-05-07T07:53:06;3.88;;;2.05;;
37237;SDS011;23129;49.662;8.448;2023-05-07T07:55:39;2.40;;;1.92;;
37237;SDS011;23129;49.662;8.448;2023-05-07T07:58:10;6.45;;;2.38;;
37237;SDS011;23129;49.662;8.448;2023-05-07T08:00:39;4.47;;;2.25;;
37237;SDS011;23129;49.662;8.448;2023-05-07T08:03:09;2.00;;;1.88;;
37237;SDS011;23129;49.662;8.448;2023-05-07T08:05:42;3.10;;;1.83;;
37237;SDS011;23129;49.662;8.448;2023-05-07T08:08:11;6.10;;;2.20;;
37237;SDS011;23129;49.662;8.448;2023-05-07T08:10:42;9.07;;;1.98;;
37237;SDS011;23129;49.662;8.448;2023-05-07T08:13:18;3.08;;;1.98;;
37237;SDS011;23129;49.662;8.448;2023-05-07T08:15:47;2.67;;;2.33;;
37237;SDS011;23129;49.662;8.448;2023-05-07T08:18:16;4.38;;;2.38;;
37237;SDS011;23129;49.662;8.448;2023-05-07T08:20:46;2.63;;;1.88;;
37237;SDS011;23129;49.662;8.448;2023-05-07T08:23:19;6.20;;;2.47;;
37237;SDS011;23129;49.662;8.448;2023-05-07T08:25:50;2.45;;;2.10;;
37237;SDS011;23129;49.662;8.448;2023-05-07T08:28:19;5.15;;;2.20;;
37237;SDS011;23129;49.662;8.448;2023-05-07T08:30:48;2.75;;;1.65;;
37237;SDS011;23129;49.662;8.448;2023-05-07T08:33:17;9.02;;;1.90;;
37237;SDS011;23129;49.662;8.448;2023-05-07T08:35:46;3.75;;;2.38;;
37237;SDS011;23129;49.662;8.448;2023-05-07T08:38:15;5.95;;;2.42;;
37237;SDS011;23129;49.662;8.448;2023-05-07T08:40:44;4.40;;;2.38;;
37237;SDS011;23129;49.662;8.448;2023-05-07T08:43:19;2.28;;;1.52;;
37237;SDS011;23129;49.662;8.448;2023-05-07T08:45:49;2.40;;;1.80;;
37237;SDS011;23129;49.662;8.448;2023-05-07T08:48:25;2.03;;;1.15;;
37237;SDS011;23129;49.662;8.448;2023-05-07T08:51:03;2.70;;;1.33;;
37237;SDS011;23129;49.662;8.448;2023-05-07T08:53:32;8.75;;;3.38;;
37237;SDS011;23129;49.662;8.448;2023-05-07T08:56:01;2.55;;;2.10;;
37237;SDS011;23129;49.662;8.448;2023-05-07T08:58:32;2.33;;;2.05;;
37237;SDS011;23129;49.662;8.448;2023-05-07T09:01:01;3.60;;;1.90;;
37237;SDS011;23129;49.662;8.448;2023-05-07T09:03:36;5.78;;;1.77;;
37237;SDS011;23129;49.662;8.448;2023-05-07T09:06:06;2.78;;;1.35;;
37237;SDS011;23129;49.662;8.448;2023-05-07T09:08:35;1.63;;;1.52;;
37237;SDS011;23129;49.662;8.448;2023-05-07T09:11:06;2.03;;;1.67;;
37237;SDS011;23129;49.662;8.448;2023-05-07T09:13:37;2.17;;;1.65;;
37237;SDS011;23129;49.662;8.448;2023-05-07T09:16:09;1.50;;;1.40;;
37237;SDS011;23129;49.662;8.448;2023-05-07T09:18:42;5.00;;;2.00;;
37237;SDS011;23129;49.662;8.448;2023-05-07T09:21:14;1.40;;;1.27;;
37237;SDS011;23129;49.662;8.448;2023-05-07T09:23:45;4.15;;;1.95;;
37237;SDS011;23129;49.662;8.448;2023-05-07T09:26:15;6.85;;;2.58;;
37237;SDS011;23129;49.662;8.448;2023-05-07T09:28:45;1.60;;;1.50;;
37237;SDS011;23129;49.662;8.448;2023-05-07T09:31:14;5.68;;;1.50;;
37237;SDS011;23129;49.662;8.448;2023-05-07T09:33:46;4.18;;;1.65;;
37237;SDS011;23129;49.662;8.448;2023-05-07T09:36:17;1.70;;;1.60;;
37237;SDS011;23129;49.662;8.448;2023-05-07T09:38:46;3.40;;;1.27;;
37237;SDS011;23129;49.662;8.448;2023-05-07T09:41:18;2.17;;;1.70;;
37237;SDS011;23129;49.662;8.448;2023-05-07T09:43:58;1.55;;;1.45;;
37237;SDS011;23129;49.662;8.448;2023-05-07T09:46:35;2.65;;;1.50;;
37237;SDS011;23129;49.662;8.448;2023-05-07T09:49:16;3.92;;;1.58;;
37237;SDS011;23129;49.662;8.448;2023-05-07T09:51:52;1.15;;;1.05;;
37237;SDS011;23129;49.662;8.448;2023-05-07T09:54:24;2.20;;;1.33;;
37237;SDS011;23129;49.662;8.448;2023-05-07T09:56:55;1.17;;;1.17;;
37237;SDS011;23129;49.662;8.448;2023-05-07T09:59:27;1.10;;;1.00;;
37237;SDS011;23129;49.662;8.448;2023-05-07T10:02:02;6.53;;;1.67;;
37237;SDS011;23129;49.662;8.448;2023-05-07T10:04:38;1.30;;;1.20;;
37237;SDS011;23129;49.662;8.448;2023-05-07T10:07:08;1.20;;;1.10;;
37237;SDS011;23129;49.662;8.448;2023-05-07T10:09:37;2.60;;;1.25;;
37237;SDS011;23129;49.662;8.448;2023-05-07T10:12:16;1.83;;;1.05;;
37237;SDS011;23129;49.662;8.448;2023-05-07T10:14:48;2.60;;;1.42;;
37237;SDS011;23129;49.662;8.448;2023-05-07T10:17:18;1.75;;;1.40;;
37237;SDS011;23129;49.662;8.448;2023-05-07T10:19:48;2.60;;;1.58;;
37237;SDS011;23129;49.662;8.448;2023-05-07T10:22:17;1.83;;;1.27;;
37237;SDS011;23129;49.662;8.448;2023-05-07T10:24:48;1.73;;;1.00;;
37237;SDS011;23129;49.662;8.448;2023-05-07T10:27:19;2.58;;;1.30;;
37237;SDS011;23129;49.662;8.448;2023-05-07T10:29:56;1.17;;;1.00;;
37237;SDS011;23129;49.662;8.448;2023-05-07T10:32:38;1.35;;;1.25;;
37237;SDS011;23129;49.662;8.448;2023-05-07T10:35:16;1.20;;;1.10;;
37237;SDS011;23129;49.662;8.448;2023-05-07T10:37:49;1.42;;;1.23;;
37237;SDS011;23129;49.662;8.448;2023-05-07T10:40:20;1.48;;;1.08;;
37237;SDS011;23129;49.662;8.448;2023-05-07T10:42:54;2.25;;;1.10;;
37237;SDS011;23129;49.662;8.448;2023-05-07T10:45:29;1.00;;;1.00;;
37237;SDS011;23129;49.662;8.448;2023-05-07T10:48:06;5.15;;;1.23;;
37237;SDS011;23129;49.662;8.448;2023-05-07T10:51:19;2.00;;;1.00;;
37237;SDS011;23129;49.662;8.448;2023-05-07T10:56:59;1.88;;;1.40;;
37237;SDS011;23129;49.662;8.448;2023-05-07T11:03:20;5.78;;;1.25;;
37237;SDS011;23129;49.662;8.448;2023-05-07T11:06:09;1.38;;;1.23;;
37237;SDS011;23129;49.662;8.448;2023-05-07T11:08:53;2.15;;;1.17;;
37237;SDS011;23129;49.662;8.448;2023-05-07T11:17:20;1.75;;;1.10;;
37237;SDS011;23129;49.662;8.448;2023-05-07T11:19:56;2.10;;;1.90;;
37237;SDS011;23129;49.662;8.448;2023-05-07T11:22:38;1.13;;;1.10;;
37237;SDS011;23129;49.662;8.448;2023-05-07T11:25:17;2.28;;;1.30;;
37237;SDS011;23129;49.662;8.448;2023-05-07T11:27:52;3.60;;;1.20;;
37237;SDS011;23129;49.662;8.448;2023-05-07T11:30:21;2.42;;;1.10;;
37237;SDS011;23129;49.662;8.448;2023-05-07T11:32:51;1.00;;;1.00;;
37237;SDS011;23129;49.662;8.448;2023-05-07T11:35:22;1.92;;;1.05;;
37237;SDS011;23129;49.662;8.448;2023-05-07T11:37:57;1.10;;;1.00;;
37237;SDS011;23129;49.662;8.448;2023-05-07T11:40:30;1.73;;;1.15;;
37237;SDS011;23129;49.662;8.448;2023-05-07T11:42:58;1.40;;;1.08;;
37237;SDS011;23129;49.662;8.448;2023-05-07T11:45:37;1.55;;;1.08;;
37237;SDS011;23129;49.662;8.448;2023-05-07T11:48:07;1.27;;;0.98;;
37237;SDS011;23129;49.662;8.448;2023-05-07T11:50:36;0.85;;;0.70;;
37237;SDS011;23129;49.662;8.448;2023-05-07T11:53:17;4.30;;;0.73;;
37237;SDS011;23129;49.662;8.448;2023-05-07T11:55:47;1.10;;;0.80;;
37237;SDS011;23129;49.662;8.448;2023-05-07T11:58:20;4.03;;;0.95;;
37237;SDS011;23129;49.662;8.448;2023-05-07T12:00:50;1.65;;;1.00;;
37237;SDS011;23129;49.662;8.448;2023-05-07T12:03:20;4.55;;;1.13;;
37237;SDS011;23129;49.662;8.448;2023-05-07T12:05:49;3.47;;;1.10;;
37237;SDS011;23129;49.662;8.448;2023-05-07T12:08:17;1.27;;;1.02;;
37237;SDS011;23129;49.662;8.448;2023-05-07T12:10:48;2.33;;;1.00;;
37237;SDS011;23129;49.662;8.448;2023-05-07T12:13:18;1.15;;;0.90;;
37237;SDS011;23129;49.662;8.448;2023-05-07T12:15:50;1.02;;;1.00;;
37237;SDS011;23129;49.662;8.448;2023-05-07T12:18:18;1.48;;;0.80;;
37237;SDS011;23129;49.662;8.448;2023-05-07T12:20:50;1.55;;;0.85;;
37237;SDS011;23129;49.662;8.448;2023-05-07T12:23:19;4.30;;;1.00;;
37237;SDS011;23129;49.662;8.448;2023-05-07T12:25:49;1.35;;;0.90;;
37237;SDS011;23129;49.662;8.448;2023-05-07T12:28:18;2.15;;;1.08;;
37237;SDS011;23129;49.662;8.448;2023-05-07T12:30:47;1.30;;;0.75;;
37237;SDS011;23129;49.662;8.448;2023-05-07T12:33:18;2.35;;;1.10;;
37237;SDS011;23129;49.662;8.448;2023-05-07T12:35:54;1.23;;;0.88;;
37237;SDS011;23129;49.662;8.448;2023-05-07T12:38:24;2.30;;;1.02;;
37237;SDS011;23129;49.662;8.448;2023-05-07T12:40:54;1.50;;;0.90;;
37237;SDS011;23129;49.662;8.448;2023-05-07T12:43:24;2.95;;;0.90;;
37237;SDS011;23129;49.662;8.448;2023-05-07T12:45:54;3.15;;;1.10;;
37237;SDS011;23129;49.662;8.448;2023-05-07T12:48:24;1.65;;;0.88;;
37237;SDS011;23129;49.662;8.448;2023-05-07T12:50:55;1.00;;;0.90;;
37237;SDS011;23129;49.662;8.448;2023-05-07T12:53:25;2.00;;;1.50;;
37237;SDS011;23129;49.662;8.448;2023-05-07T12:55:55;0.90;;;0.90;;
37237;SDS011;23129;49.662;8.448;2023-05-07T12:58:26;0.73;;;0.73;;
37237;SDS011;23129;49.662;8.448;2023-05-07T13:00:56;2.10;;;1.85;;
37237;SDS011;23129;49.662;8.448;2023-05-07T13:03:28;8.02;;;1.70;;
37237;SDS011;23129;49.662;8.448;2023-05-07T13:06:00;1.58;;;1.05;;
37237;SDS011;23129;49.662;8.448;2023-05-07T13:08:32;0.90;;;0.77;;
37237;SDS011;23129;49.662;8.448;2023-05-07T13:11:04;5.68;;;1.00;;
37237;SDS011;23129;49.662;8.448;2023-05-07T13:13:35;1.08;;;1.00;;
37237;SDS011;23129;49.662;8.448;2023-05-07T13:16:05;1.00;;;0.90;;
37237;SDS011;23129;49.662;8.448;2023-05-07T13:18:37;5.20;;;0.98;;
37237;SDS011;23129;49.662;8.448;2023-05-07T13:21:08;1.77;;;0.90;;
37237;SDS011;23129;49.662;8.448;2023-05-07T13:23:39;1.05;;;0.82;;
37237;SDS011;23129;49.662;8.448;2023-05-07T13:26:08;1.00;;;0.90;;
37237;SDS011;23129;49.662;8.448;2023-05-07T13:28:51;3.70;;;1.00;;
37237;SDS011;23129;49.662;8.448;2023-05-07T13:31:20;1.20;;;1.10;;
37237;SDS011;23129;49.662;8.448;2023-05-07T13:33:49;2.75;;;1.25;;
37237;SDS011;23129;49.662;8.448;2023-05-07T13:36:20;1.42;;;1.33;;
37237;SDS011;23129;49.662;8.448;2023-05-07T13:38:48;1.38;;;1.27;;
37237;SDS011;23129;49.662;8.448;2023-05-07T13:41:18;2.45;;;1.42;;
37237;SDS011;23129;49.662;8.448;2023-05-07T13:43:46;1.73;;;1.48;;
37237;SDS011;23129;49.662;8.448;2023-05-07T13:46:15;1.40;;;1.30;;
37237;SDS011;23129;49.662;8.448;2023-05-07T13:48:44;1.27;;;1.17;;
37237;SDS011;23129;49.662;8.448;2023-05-07T13:51:13;1.73;;;1.45;;
37237;SDS011;23129;49.662;8.448;2023-05-07T13:53:43;4.07;;;1.60;;
37237;SDS011;23129;49.662;8.448;2023-05-07T13:56:11;2.42;;;1.38;;
37237;SDS011;23129;49.662;8.448;2023-05-07T13:58:40;1.58;;;1.40;;
37237;SDS011;23129;49.662;8.448;2023-05-07T14:01:25;4.53;;;2.00;;
37237;SDS011;23129;49.662;8.448;2023-05-07T14:03:55;2.83;;;2.00;;
37237;SDS011;23129;49.662;8.448;2023-05-07T14:06:24;1.90;;;1.73;;
37237;SDS011;23129;49.662;8.448;2023-05-07T14:08:54;3.28;;;1.63;;
37237;SDS011;23129;49.662;8.448;2023-05-07T14:11:24;1.92;;;1.77;;
37237;SDS011;23129;49.662;8.448;2023-05-07T14:13:52;2.60;;;1.45;;
37237;SDS011;23129;49.662;8.448;2023-05-07T14:16:23;4.50;;;1.92;;
37237;SDS011;23129;49.662;8.448;2023-05-07T14:18:52;4.82;;;1.92;;
37237;SDS011;23129;49.662;8.448;2023-05-07T14:21:23;1.75;;;1.65;;
37237;SDS011;23129;49.662;8.448;2023-05-07T14:23:54;3.05;;;1.50;;
37237;SDS011;23129;49.662;8.448;2023-05-07T14:26:23;2.30;;;1.85;;
37237;SDS011;23129;49.662;8.448;2023-05-07T14:28:53;1.67;;;1.58;;
37237;SDS011;23129;49.662;8.448;2023-05-07T14:31:24;3.22;;;1.80;;
37237;SDS011;23129;49.662;8.448;2023-05-07T14:33:53;2.35;;;1.77;;
37237;SDS011;23129;49.662;8.448;2023-05-07T14:36:24;1.50;;;1.40;;
37237;SDS011;23129;49.662;8.448;2023-05-07T14:38:54;1.60;;;1.50;;
37237;SDS011;23129;49.662;8.448;2023-05-07T14:41:25;3.75;;;1.75;;
37237;SDS011;23129;49.662;8.448;2023-05-07T14:43:54;2.17;;;1.90;;
37237;SDS011;23129;49.662;8.448;2023-05-07T14:46:22;5.55;;;1.45;;
37237;SDS011;23129;49.662;8.448;2023-05-07T14:48:52;3.33;;;2.67;;
37237;SDS011;23129;49.662;8.448;2023-05-07T14:51:21;2.03;;;1.92;;
37237;SDS011;23129;49.662;8.448;2023-05-07T14:53:50;1.92;;;1.60;;
37237;SDS011;23129;49.662;8.448;2023-05-07T14:56:19;2.00;;;1.90;;
37237;SDS011;23129;49.662;8.448;2023-05-07T14:58:49;1.63;;;1.52;;
37237;SDS011;23129;49.662;8.448;2023-05-07T15:01:17;3.88;;;1.95;;
37237;SDS011;23129;49.662;8.448;2023-05-07T15:03:47;1.98;;;1.42;;
37237;SDS011;23129;49.662;8.448;2023-05-07T15:06:16;3.35;;;1.63;;
37237;SDS011;23129;49.662;8.448;2023-05-07T15:08:45;4.25;;;1.48;;
37237;SDS011;23129;49.662;8.448;2023-05-07T15:11:14;2.03;;;1.77;;
37237;SDS011;23129;49.662;8.448;2023-05-07T15:13:44;1.60;;;1.20;;
37237;SDS011;23129;49.662;8.448;2023-05-07T15:16:13;1.20;;;1.10;;
37237;SDS011;23129;49.662;8.448;2023-05-07T15:18:42;5.35;;;1.15;;
37237;SDS011;23129;49.662;8.448;2023-05-07T15:21:10;1.38;;;1.02;;
37237;SDS011;23129;49.662;8.448;2023-05-07T15:23:39;4.78;;;1.23;;
37237;SDS011;23129;49.662;8.448;2023-05-07T15:26:10;1.13;;;0.90;;
37237;SDS011;23129;49.662;8.448;2023-05-07T15:28:38;1.67;;;1.30;;